Pullman, Washington
Current Conditions -  °F | °C
As of 2:32 PM on Thursday 23 Oct 2014 (Local Time) from KPUW Reporting Station
Light Rain Light Rain  
Wind Chill: 53°   Ceiling: 1900
Heat Index: 53°   Visibility: 1.5mi
Dew Point: 49°   Wind: 15mph
Humidity: 86%   Direction: 240°WSW
Pressure: 29.88"   Gusts: NA
Location:  46.73°N, 117.18°W
Report Text: KPUW 232132Z AUTO 24013KT 1 1/2SM -RA BR SCT011 BKN019 OVC037 12/09 A2988 RMK AO2 RAE2055B19 P0009 T01170094
Loading
Personal Weather Stations






























Interactive Weather Map
Tropical Storm Tracking
New forecast layout! Learn more

10-Day Weather Forecast

Advertisements
Track Severe Weather on mobile